| time (UTC) | temp F | wind direction | speed knots | gust knots | rain 1hr in | rain 24hr in | rain mn in | humidity % | barometer mb |
| 20260510141549 | 77 | 201 | 0.0 | 1.7 | 0.00 | 0.00 | 0.00 | 49 | 1013.0 |
| 20260510140013 | 74 | 191 | 0.0 | 0.0 | 0.00 | 0.00 | 0.00 | 52 | 1012.9 |
| 20260510134545 | 71 | 156 | 0.0 | 0.0 | 0.00 | 0.00 | 0.00 | 58 | 1012.8 |
| 20260510133009 | 69 | 143 | 0.0 | 0.0 | 0.00 | 0.00 | 0.00 | 63 | 1012.8 |
| 20260510131545 | 66 | 156 | 0.0 | 0.9 | 0.00 | 0.00 | 0.00 | 67 | 1012.8 |
| 20260510124518 | 62 | 33 | 0.0 | 1.7 | 0.00 | 0.00 | 0.00 | 73 | 1013.0 |
| 20260510123054 | 60 | 95 | 0.0 | 0.9 | 0.00 | 0.00 | 0.00 | 76 | 1013.0 |
| 20260510121502 | 59 | 163 | 0.0 | 0.9 | 0.00 | 0.00 | 0.00 | 79 | 1012.8 |
| 20260510120036 | 56 | 143 | 0.0 | 0.0 | 0.00 | 0.00 | 0.00 | 86 | 1012.8 |
| 20260510114552 | 54 | 143 | 0.0 | 0.0 | 0.00 | 0.00 | 0.00 | 91 | 1012.6 |
| 20260510113020 | 53 | 143 | 0.0 | 0.0 | 0.00 | 0.00 | 0.00 | 93 | 1012.5 |
| 20260510111551 | 52 | 143 | 0.0 | 0.0 | 0.00 | 0.00 | 0.00 | 92 | 1012.2 |
| 20260510110016 | 51 | 143 | 0.0 | 0.0 | 0.00 | 0.00 | 0.00 | 92 | 1012.1 |
| 20260510104547 | 51 | 143 | 0.0 | 0.0 | 0.00 | 0.00 | 0.00 | 91 | 1011.8 |
| 20260510103013 | 51 | 143 | 0.0 | 0.0 | 0.00 | 0.00 | 0.00 | 90 | 1011.5 |
| 20260510101532 | 51 | 143 | 0.0 | 0.0 | 0.00 | 0.00 | 0.00 | 90 | 1011.3 |
| 20260510100110 | 52 | 143 | 0.0 | 0.0 | 0.00 | 0.00 | 0.00 | 90 | 1011.2 |
| 20260510094535 | 52 | 143 | 0.0 | 0.0 | 0.00 | 0.00 | 0.00 | 90 | 1011.2 |
| 20260510093050 | 53 | 143 | 0.0 | 0.0 | 0.00 | 0.00 | 0.00 | 89 | 1011.0 |
| 20260510091519 | 53 | 143 | 0.0 | 0.0 | 0.00 | 0.00 | 0.00 | 89 | 1011.0 |
| 20260510090047 | 53 | 143 | 0.0 | 0.0 | 0.00 | 0.00 | 0.00 | 88 | 1010.9 |
| 20260510084603 | 54 | 143 | 0.0 | 0.0 | 0.00 | 0.00 | 0.00 | 89 | 1010.8 |
| 20260510083032 | 54 | 143 | 0.0 | 0.0 | 0.00 | 0.00 | 0.00 | 88 | 1010.7 |
| 20260510081548 | 54 | 143 | 0.0 | 0.0 | 0.00 | 0.00 | 0.00 | 87 | 1010.7 |
| 20260510080013 | 54 | 143 | 0.0 | 0.0 | 0.00 | 0.00 | 0.00 | 87 | 1010.4 |
| 20260510074550 | 55 | 143 | 0.0 | 0.0 | 0.00 | 0.00 | 0.00 | 85 | 1010.3 |
| 20260510073117 | 55 | 143 | 0.0 | 0.0 | 0.00 | 0.00 | 0.00 | 85 | 1010.2 |
| 20260510071528 | 56 | 143 | 0.0 | 0.0 | 0.00 | 0.00 | 0.00 | 83 | 1010.0 |
| 20260510070043 | 57 | 143 | 0.0 | 0.9 | 0.00 | 0.00 | 0.00 | 83 | 1010.0 |
| 20260510064529 | 56 | 127 | 0.0 | 0.9 | 0.00 | 0.00 | 0.00 | 84 | 1009.8 |
| 20260510063041 | 57 | 127 | 0.0 | 0.0 | 0.00 | 0.00 | 0.00 | 82 | 1009.9 |
| 20260510061558 | 58 | 127 | 0.0 | 0.9 | 0.00 | 0.00 | 0.00 | 81 | 1009.8 |
| 20260510060028 | 58 | 127 | 0.0 | 0.9 | 0.00 | 0.00 | 0.00 | 81 | 1009.7 |
| 20260510054545 | 59 | 127 | 0.0 | 0.0 | 0.00 | 0.00 | 0.00 | 80 | 1009.9 |
| 20260510053022 | 59 | 118 | 0.0 | 0.9 | 0.00 | 0.00 | 0.00 | 80 | 1009.8 |
| 20260510051548 | 58 | 84 | 0.0 | 0.0 | 0.00 | 0.00 | 0.00 | 82 | 1009.8 |
| 20260510050055 | 58 | 216 | 0.0 | 0.0 | 0.00 | 0.00 | 0.00 | 81 | 1009.8 |
| 20260510044522 | 57 | 216 | 0.0 | 0.0 | 0.00 | 0.00 | 0.00 | 82 | 1009.7 |
| 20260510043036 | 58 | 216 | 0.0 | 0.0 | 0.00 | 0.00 | 0.00 | 81 | 1009.7 |
| 20260510041504 | 58 | 216 | 0.0 | 0.0 | 0.00 | 0.00 | 0.00 | 80 | 1009.8 |
| 20260510040044 | 58 | 216 | 0.0 | 0.0 | 0.00 | 0.00 | 0.00 | 82 | 1009.9 |
| 20260510034613 | 57 | 216 | 0.0 | 0.0 | 0.00 | 0.00 | 0.00 | 82 | 1009.8 |
| 20260510033020 | 57 | 216 | 0.0 | 0.0 | 0.00 | 0.00 | 0.00 | 81 | 1009.5 |
| 20260510031536 | 58 | 216 | 0.0 | 0.0 | 0.00 | 0.00 | 0.00 | 80 | 1009.4 |
| 20260510030006 | 58 | 216 | 0.0 | 0.0 | 0.00 | 0.00 | 0.00 | 79 | 1009.3 |
| 20260510024538 | 58 | 216 | 0.0 | 0.0 | 0.00 | 0.00 | 0.00 | 78 | 1009.3 |
| 20260510023055 | 59 | 216 | 0.0 | 0.0 | 0.00 | 0.00 | 0.00 | 77 | 1009.0 |
| 20260510021530 | 59 | 216 | 0.0 | 0.0 | 0.00 | 0.00 | 0.00 | 77 | 1009.0 |
| 20260510020057 | 60 | 216 | 0.0 | 0.0 | 0.00 | 0.00 | 0.00 | 75 | 1008.9 |
| 20260510014524 | 61 | 216 | 0.0 | 0.0 | 0.00 | 0.00 | 0.00 | 73 | 1008.6 |
| 20260510013043 | 62 | 216 | 0.0 | 0.0 | 0.00 | 0.00 | 0.00 | 72 | 1008.5 |
| 20260510011511 | 62 | 216 | 0.0 | 0.0 | 0.00 | 0.00 | 0.00 | 70 | 1008.3 |
| 20260510010046 | 63 | 216 | 0.0 | 0.0 | 0.00 | 0.00 | 0.00 | 68 | 1008.2 |
| 20260510004617 | 64 | 216 | 0.0 | 0.0 | 0.00 | 0.00 | 0.00 | 66 | 1008.0 |
| 20260510003037 | 65 | 216 | 0.0 | 0.0 | 0.00 | 0.00 | 0.00 | 65 | 1007.8 |
| 20260510001503 | 67 | 216 | 0.0 | 0.0 | 0.00 | 0.00 | 0.00 | 62 | 1007.8 |
| 20260510000036 | 68 | 216 | 0.0 | 0.0 | 0.00 | 0.00 | 0.00 | 60 | 1007.6 |
| 20260509234506 | 70 | 216 | 0.0 | 0.0 | 0.00 | 0.00 | 0.00 | 57 | 1007.5 |
| 20260509233041 | 71 | 216 | 0.0 | 0.0 | 0.00 | 0.00 | 0.00 | 54 | 1007.3 |
| 20260509231511 | 72 | 205 | 0.0 | 1.7 | 0.00 | 0.00 | 0.00 | 53 | 1007.4 |
| 20260509230042 | 73 | 188 | 0.0 | 1.7 | 0.00 | 0.00 | 0.00 | 52 | 1007.4 |
| 20260509224513 | 73 | 157 | 0.0 | 0.0 | 0.00 | 0.00 | 0.00 | 52 | 1007.3 |
| 20260509223048 | 73 | 170 | 0.0 | 0.0 | 0.00 | 0.00 | 0.00 | 52 | 1007.4 |
| 20260509221502 | 73 | 170 | 0.0 | 0.0 | 0.00 | 0.00 | 0.00 | 52 | 1007.5 |
| 20260509220042 | 74 | 170 | 0.0 | 0.0 | 0.00 | 0.00 | 0.00 | 51 | 1007.5 |
| 20260509214502 | 74 | 155 | 0.0 | 0.9 | 0.00 | 0.00 | 0.00 | 50 | 1007.5 |
| 20260509213037 | 74 | 144 | 0.0 | 2.6 | 0.00 | 0.00 | 0.00 | 49 | 1007.4 |
| 20260509211553 | 75 | 123 | 0.0 | 2.6 | 0.00 | 0.00 | 0.00 | 50 | 1007.3 |
| 20260509210023 | 76 | 183 | 0.0 | 3.5 | 0.00 | 0.00 | 0.00 | 48 | 1007.1 |
| 20260509204555 | 76 | 158 | 0.0 | 2.6 | 0.00 | 0.00 | 0.00 | 49 | 1007.0 |
| 20260509203033 | 75 | 34 | 0.0 | 2.6 | 0.00 | 0.00 | 0.00 | 51 | 1007.0 |
| 20260509201556 | 75 | 105 | 0.9 | 2.6 | 0.00 | 0.00 | 0.00 | 49 | 1007.2 |
| 20260509200033 | 75 | 165 | 0.0 | 3.5 | 0.00 | 0.00 | 0.00 | 52 | 1007.4 |
| 20260509194550 | 74 | 150 | 0.9 | 2.6 | 0.00 | 0.00 | 0.00 | 53 | 1007.6 |
| 20260509193013 | 72 | 146 | 0.0 | 1.7 | 0.00 | 0.00 | 0.00 | 55 | 1008.0 |
| 20260509191544 | 73 | 86 | 0.0 | 1.7 | 0.00 | 0.00 | 0.00 | 55 | 1008.2 |
| 20260509190008 | 72 | 77 | 0.0 | 1.7 | 0.00 | 0.00 | 0.00 | 57 | 1008.4 |
| 20260509184538 | 72 | 129 | 0.0 | 3.5 | 0.00 | 0.00 | 0.00 | 57 | 1008.6 |
| 20260509183005 | 71 | 129 | 0.0 | 0.9 | 0.00 | 0.00 | 0.00 | 60 | 1008.8 |
| 20260509181537 | 71 | 181 | 0.0 | 1.7 | 0.00 | 0.00 | 0.00 | 58 | 1009.0 |
| 20260509180056 | 71 | 198 | 0.0 | 1.7 | 0.00 | 0.00 | 0.00 | 58 | 1009.2 |
| 20260509174540 | 71 | 245 | 0.0 | 4.3 | 0.00 | 0.00 | 0.00 | 57 | 1009.3 |
| 20260509173050 | 72 | 191 | 0.9 | 6.1 | 0.00 | 0.00 | 0.00 | 56 | 1009.5 |
| 20260509171604 | 71 | 187 | 0.9 | 3.5 | 0.00 | 0.00 | 0.00 | 58 | 1009.7 |
| 20260509170034 | 69 | 267 | 0.9 | 2.6 | 0.00 | 0.00 | 0.00 | 58 | 1009.7 |
| 20260509164605 | 69 | 169 | 0.9 | 4.3 | 0.00 | 0.00 | 0.00 | 57 | 1009.7 |
| 20260509163027 | 69 | 206 | 0.0 | 5.2 | 0.00 | 0.00 | 0.00 | 58 | 1009.6 |
| 20260509161547 | 68 | 23 | 0.0 | 1.7 | 0.00 | 0.00 | 0.00 | 58 | 1009.8 |
| 20260509154532 | 69 | 207 | 0.9 | 3.5 | 0.00 | 0.00 | 0.00 | 56 | 1009.9 |
| 20260509153052 | 71 | 103 | 0.9 | 7.0 | 0.00 | 0.00 | 0.00 | 53 | 1010.1 |
| 20260509151512 | 71 | 159 | 0.9 | 4.3 | 0.00 | 0.00 | 0.00 | 54 | 1010.2 |
| 20260509150043 | 69 | 162 | 0.9 | 3.5 | 0.00 | 0.00 | 0.00 | 56 | 1010.1 |
| 20260509144600 | 67 | 152 | 0.9 | 2.6 | 0.00 | 0.00 | 0.00 | 60 | 1010.4 |
| 20260509143029 | 66 | 128 | 0.0 | 6.1 | 0.00 | 0.00 | 0.00 | 61 | 1010.8 |